Beetown, Wisconsin
Current Conditions -  °F | °C
As of 1:55 PM on Sunday 23 Nov 2014 (Local Time) from KPDC Reporting Station
Light Rain Light Rain  
Wind Chill: 48°   Ceiling: 700
Heat Index: 50°   Visibility: 5mi
Dew Point: 48°   Wind: 5mph
Humidity: 95%   Direction: 110°ESE
Pressure: 29.4"   Gusts: NA
Location:  42.8°N, 90.89°W
Report Text: KPDC 231955Z AUTO 11004KT 5SM -RA OVC007 10/09 A2940 RMK AO2 P0007 T00980090
Loading
Personal Weather Stations






























Interactive Weather Map New forecast layout! Learn more

10-Day Weather Forecast

Advertisements
Track Severe Weather on mobile